Time;durP1;ratioP1;P1;durP2;ratioP2;P2;SDS_P1;SDS_P2;PMS_P1;PMS_P2;Temp;Humidity;BMP_temperature;BMP_pressure;BME280_temperature;BME280_humidity;BME280_pressure;Samples;Min_cycle;Max_cycle;Signal;HPM_P1;HPM_P2
2022/09/22 00:01:33;;;;;;;0.00;0.00;;;;;;;6.51;100.00;101360.78;5073780;28;20174;-75
2022/09/22 00:04:02;;;;;;;0.00;0.00;;;;;;;6.47;100.00;101357.75;5073668;28;20217;-75
2022/09/22 00:06:37;;;;;;;0.00;0.00;;;;;;;6.45;100.00;101356.38;5073305;28;20626;-75
2022/09/22 00:09:05;;;;;;;0.00;0.00;;;;;;;6.48;100.00;101355.84;5073554;28;20573;-75
2022/09/22 00:11:35;;;;;;;0.00;0.00;;;;;;;6.40;100.00;101354.44;5073571;28;20202;-75
2022/09/22 00:14:12;;;;;;;0.10;0.10;;;;;;;6.41;100.00;101352.56;5073427;28;20189;-75
2022/09/22 00:16:51;;;;;;;0.00;0.00;;;;;;;6.47;100.00;101357.75;5073350;28;20247;-75
2022/09/22 00:19:21;;;;;;;1.37;1.27;;;;;;;6.44;100.00;101360.97;5071991;28;20648;-75
2022/09/22 00:21:47;;;;;;;2.63;1.70;;;;;;;6.43;100.00;101348.50;5072167;28;20174;-75
2022/09/22 00:24:13;;;;;;;0.67;0.67;;;;;;;6.46;100.00;101353.38;5073182;28;20178;-75
2022/09/22 00:26:38;;;;;;;0.50;0.50;;;;;;;6.45;100.00;101346.31;5073170;28;20178;-75
2022/09/22 00:29:08;;;;;;;0.57;0.57;;;;;;;6.46;100.00;101345.25;5073147;28;20200;-76
2022/09/22 00:31:35;;;;;;;0.00;0.00;;;;;;;6.52;100.00;101351.53;5073145;28;20198;-75
2022/09/22 00:34:00;;;;;;;0.00;0.00;;;;;;;6.53;100.00;101347.75;5073073;28;20175;-75
2022/09/22 00:36:27;;;;;;;0.00;0.00;;;;;;;6.57;100.00;101354.28;5072534;28;20202;-75
2022/09/22 00:38:55;;;;;;;0.00;0.00;;;;;;;6.67;100.00;101362.50;5073028;28;20420;-76
2022/09/22 00:41:26;;;;;;;1.30;1.30;;;;;;;6.78;100.00;101350.59;5071557;28;20177;-75
2022/09/22 00:44:16;;;;;;;0.00;0.00;;;;;;;6.67;100.00;101354.34;5071821;28;20175;-75
2022/09/22 00:46:44;;;;;;;0.00;0.00;;;;;;;6.52;100.00;101341.50;5072708;28;20533;-76
2022/09/22 00:49:12;;;;;;;0.00;0.00;;;;;;;6.42;100.00;101341.44;5073029;28;20187;-75
2022/09/22 00:51:40;;;;;;;0.00;0.00;;;;;;;6.41;100.00;101350.66;5072828;28;20175;-75
2022/09/22 00:54:10;;;;;;;0.00;0.00;;;;;;;6.45;100.00;101346.31;5072912;28;20236;-75
2022/09/22 00:56:47;;;;;;;0.00;0.00;;;;;;;6.49;100.00;101344.72;5072449;28;20660;-75
2022/09/22 00:59:17;;;;;;;0.00;0.00;;;;;;;6.51;100.00;101345.31;5072540;28;20697;-75
2022/09/22 01:01:43;;;;;;;0.00;0.00;;;;;;;6.54;100.00;101339.34;5072665;28;20563;-76
2022/09/22 01:04:09;;;;;;;0.00;0.00;;;;;;;6.56;100.00;101347.22;5072697;28;20543;-76
2022/09/22 01:06:38;;;;;;;0.00;0.00;;;;;;;6.56;100.00;101344.50;5071794;28;20170;-76
2022/09/22 01:09:04;;;;;;;0.00;0.00;;;;;;;6.49;100.00;101339.28;5072459;28;20261;-76
2022/09/22 01:11:30;;;;;;;0.00;0.00;;;;;;;6.50;100.00;101340.91;5072444;28;20273;-75
2022/09/22 01:14:14;;;;;;;0.00;0.00;;;;;;;6.51;100.00;101337.16;5072318;28;20166;-76
2022/09/22 01:17:06;;;;;;;0.00;0.00;;;;;;;6.52;100.00;101346.94;5072014;28;20209;-75
2022/09/22 01:20:01;;;;;;;0.00;0.00;;;;;;;6.52;100.00;101341.50;5072682;28;20201;-75
2022/09/22 01:23:04;;;;;;;0.00;0.00;;;;;;;6.66;100.00;101338.31;5072920;28;20211;-75
2022/09/22 01:25:38;;;;;;;0.00;0.00;;;;;;;6.54;100.00;101335.81;5076669;28;20253;-75
2022/09/22 01:28:22;;;;;;;0.00;0.00;;;;;;;6.36;100.00;101331.59;5075523;28;20173;-75
2022/09/22 01:31:04;;;;;;;0.00;0.00;;;;;;;6.23;100.00;101334.78;5069114;28;20637;-74
2022/09/22 01:33:43;;;;;;;0.00;0.00;;;;;;;6.20;100.00;101330.69;5072393;28;20182;-76
2022/09/22 01:36:20;;;;;;;0.00;0.00;;;;;;;6.17;100.00;101324.97;5072098;28;20265;-75
2022/09/22 01:39:09;;;;;;;0.20;0.20;;;;;;;6.11;100.00;101334.16;5072374;28;20599;-75
2022/09/22 01:41:44;;;;;;;0.00;0.00;;;;;;;6.09;100.00;101328.19;5071101;28;20562;-74
2022/09/22 01:44:27;;;;;;;0.00;0.00;;;;;;;5.95;100.00;101325.91;5072200;28;20628;-75
2022/09/22 01:47:03;;;;;;;0.00;0.00;;;;;;;5.84;100.00;101321.44;5071768;28;20166;-75
2022/09/22 01:49:32;;;;;;;0.00;0.00;;;;;;;5.77;100.00;101318.09;5071924;28;20251;-75
2022/09/22 01:52:15;;;;;;;0.00;0.00;;;;;;;5.72;100.00;101328.09;5072042;28;20661;-75
2022/09/22 01:54:45;;;;;;;0.00;0.00;;;;;;;5.64;100.00;101326.66;5071898;28;20174;-74
2022/09/22 01:57:17;;;;;;;0.00;0.00;;;;;;;5.65;100.00;101323.69;5071577;28;20205;-75
2022/09/22 01:59:49;;;;;;;0.00;0.00;;;;;;;5.70;100.00;101330.25;5071736;28;20189;-75
2022/09/22 02:02:50;;;;;;;0.00;0.00;;;;;;;5.75;100.00;101324.84;5071931;28;20201;-75
2022/09/22 02:05:21;;;;;;;0.00;0.00;;;;;;;5.78;100.00;101318.91;5069243;28;20194;-76
2022/09/22 02:07:50;;;;;;;0.00;0.00;;;;;;;5.87;100.00;101323.63;5070103;28;20194;-75
2022/09/22 02:10:20;;;;;;;0.00;0.00;;;;;;;6.00;100.00;101316.16;5070146;28;20649;-75
2022/09/22 02:12:48;;;;;;;0.00;0.00;;;;;;;6.04;100.00;101312.66;5071535;28;20209;-76
2022/09/22 02:18:05;;;;;;;0.00;0.00;;;;;;;6.01;100.00;101309.66;5070391;28;20240;-75
2022/09/22 02:20:32;;;;;;;0.00;0.00;;;;;;;6.01;100.00;101310.47;5071334;28;20178;-76
2022/09/22 02:22:57;;;;;;;0.00;0.00;;;;;;;5.99;100.00;101309.09;5071252;28;20258;-75
2022/09/22 02:25:23;;;;;;;0.00;0.00;;;;;;;5.99;100.00;101309.91;5071232;28;20265;-75
2022/09/22 02:27:53;;;;;;;0.00;0.00;;;;;;;6.01;100.00;101306.94;5070999;28;20182;-74
2022/09/22 02:30:19;;;;;;;0.00;0.00;;;;;;;5.93;100.00;101319.91;5071167;28;20652;-75
2022/09/22 02:32:48;;;;;;;0.00;0.00;;;;;;;5.95;100.00;101316.94;5070871;28;20273;-75
2022/09/22 02:35:14;;;;;;;0.00;0.00;;;;;;;5.90;100.00;101311.47;5069476;28;20167;-74
2022/09/22 02:37:44;;;;;;;0.00;0.00;;;;;;;5.95;100.00;101316.94;5070770;28;20547;-75
2022/09/22 02:40:16;;;;;;;0.00;0.00;;;;;;;5.99;100.00;101312.63;5071055;28;20170;-75
2022/09/22 02:42:50;;;;;;;0.00;0.00;;;;;;;5.97;100.00;101312.88;5070880;28;20177;-76
2022/09/22 02:45:23;;;;;;;0.00;0.00;;;;;;;5.88;100.00;101305.44;5071226;28;20272;-76
2022/09/22 02:47:56;;;;;;;0.00;0.00;;;;;;;6.03;100.00;101310.22;5070691;28;20174;-75
2022/09/22 02:50:24;;;;;;;0.00;0.00;;;;;;;6.13;100.00;101304.88;5069632;28;20222;-75
2022/09/22 02:52:59;;;;;;;0.00;0.00;;;;;;;6.25;100.00;101298.16;5070903;28;20210;-75
2022/09/22 02:55:25;;;;;;;0.00;0.00;;;;;;;6.31;100.00;101301.72;5070993;28;20186;-76
2022/09/22 02:57:50;;;;;;;0.00;0.00;;;;;;;6.33;100.00;101291.41;5071353;28;20706;-76
2022/09/22 03:00:15;;;;;;;0.00;0.00;;;;;;;6.38;100.00;101299.63;5071372;28;20171;-75
2022/09/22 03:02:41;;;;;;;0.00;0.00;;;;;;;6.32;100.00;101297.13;5070097;28;20170;-75
2022/09/22 03:05:06;;;;;;;0.00;0.00;;;;;;;6.29;100.00;101289.50;5071122;28;20174;-75
2022/09/22 03:07:32;;;;;;;0.00;0.00;;;;;;;6.31;100.00;101290.88;5070662;28;20540;-75
2022/09/22 03:09:57;;;;;;;0.00;0.00;;;;;;;6.36;100.00;101293.59;5071043;28;20181;-75
2022/09/22 03:12:22;;;;;;;0.00;0.00;;;;;;;6.33;100.00;101282.47;5070636;28;20170;-75
2022/09/22 03:14:49;;;;;;;0.00;0.00;;;;;;;6.31;100.00;101288.16;5070742;28;20174;-75
2022/09/22 03:17:14;;;;;;;0.00;0.00;;;;;;;6.35;100.00;101286.53;5070379;28;20665;-75
2022/09/22 03:19:39;;;;;;;0.00;0.00;;;;;;;6.43;100.00;101282.53;5070734;28;20175;-75
2022/09/22 03:22:05;;;;;;;0.00;0.00;;;;;;;6.45;100.00;101289.31;5070483;28;20254;-76
2022/09/22 03:24:30;;;;;;;0.00;0.00;;;;;;;6.40;100.00;101281.16;5070924;28;20170;-76
2022/09/22 03:26:55;;;;;;;0.00;0.00;;;;;;;6.13;100.00;101278.56;5070329;28;20189;-76
2022/09/22 03:29:21;;;;;;;0.00;0.00;;;;;;;6.01;100.00;101280.63;5070159;28;20289;-76
2022/09/22 03:31:46;;;;;;;0.00;0.00;;;;;;;6.00;100.00;101281.72;5075092;28;20698;-75
2022/09/22 03:34:11;;;;;;;0.00;0.00;;;;;;;6.07;100.00;101270.63;5074212;28;20170;-75
2022/09/22 03:36:37;;;;;;;0.00;0.00;;;;;;;6.22;100.00;101282.41;5074459;28;20471;-76
2022/09/22 03:39:02;;;;;;;0.00;0.00;;;;;;;6.31;100.00;101282.72;5074589;28;20625;-76
2022/09/22 03:41:27;;;;;;;0.00;0.00;;;;;;;6.38;100.00;101275.19;5074403;28;20174;-76
2022/09/22 03:43:53;;;;;;;0.00;0.00;;;;;;;6.43;100.00;101267.06;5074423;28;20543;-76
2022/09/22 03:46:18;;;;;;;0.00;0.00;;;;;;;6.45;100.00;101281.19;5074378;28;20205;-76
2022/09/22 03:48:43;;;;;;;0.00;0.00;;;;;;;6.42;100.00;101275.47;5074120;28;20245;-76
2022/09/22 03:51:09;;;;;;;0.00;0.00;;;;;;;6.39;100.00;101274.09;5072884;28;20185;-76
2022/09/22 03:53:35;;;;;;;0.00;0.00;;;;;;;6.41;100.00;101276.56;5074173;28;20182;-76
2022/09/22 03:56:12;;;;;;;0.00;0.00;;;;;;;6.47;100.00;101279.03;5073837;28;20229;-75
2022/09/22 03:58:38;;;;;;;0.00;0.00;;;;;;;6.42;100.00;101281.72;5073967;28;20205;-76
2022/09/22 04:01:05;;;;;;;0.00;0.00;;;;;;;6.19;100.00;101266.63;5074024;28;20171;-75
2022/09/22 04:03:30;;;;;;;0.00;0.00;;;;;;;6.08;100.00;101275.81;5073910;28;20182;-75
2022/09/22 04:05:56;;;;;;;0.00;0.00;;;;;;;6.14;100.00;101273.94;5073719;28;20189;-76
2022/09/22 04:08:22;;;;;;;0.00;0.00;;;;;;;6.11;100.00;101271.75;5073794;28;20216;-76
2022/09/22 04:10:47;;;;;;;0.00;0.00;;;;;;;5.92;100.00;101266.72;5073775;28;20265;-75
2022/09/22 04:13:13;;;;;;;0.10;0.10;;;;;;;5.84;100.00;101271.81;5073805;28;20333;-75
2022/09/22 04:15:39;;;;;;;0.00;0.00;;;;;;;5.83;100.00;101272.88;5073609;28;20177;-76
2022/09/22 04:18:05;;;;;;;0.00;0.00;;;;;;;5.78;100.00;101268.22;5073367;28;20199;-75
2022/09/22 04:20:30;;;;;;;0.00;0.00;;;;;;;5.70;100.00;101271.41;5072359;28;20170;-75
2022/09/22 04:22:56;;;;;;;0.00;0.00;;;;;;;5.71;100.00;101270.34;5073689;28;20262;-75
2022/09/22 04:25:21;;;;;;;0.00;0.00;;;;;;;5.74;100.00;101269.00;5073574;28;20248;-76
2022/09/22 04:27:47;;;;;;;0.00;0.00;;;;;;;5.77;100.00;101263.88;5073353;28;20508;-75
2022/09/22 04:30:12;;;;;;;0.00;0.00;;;;;;;5.79;100.00;101266.34;5073637;28;20177;-76
2022/09/22 04:32:38;;;;;;;0.00;0.00;;;;;;;5.80;100.00;101257.13;5073517;28;20167;-76
2022/09/22 04:35:04;;;;;;;0.00;0.00;;;;;;;5.83;100.00;101260.13;5073045;28;20386;-76
2022/09/22 04:37:30;;;;;;;0.00;0.00;;;;;;;5.85;100.00;101252.56;5073094;28;20788;-76
2022/09/22 04:39:55;;;;;;;0.00;0.00;;;;;;;5.99;100.00;101255.66;5073327;28;20265;-76
2022/09/22 04:42:20;;;;;;;0.07;0.07;;;;;;;5.93;100.00;101252.13;5072556;28;20675;-75
2022/09/22 04:44:46;;;;;;;0.97;0.97;;;;;;;5.72;100.00;101252.19;5073105;28;20178;-75
2022/09/22 04:47:12;;;;;;;0.00;0.00;;;;;;;5.66;100.00;101252.16;5073051;28;20171;-75
2022/09/22 04:49:37;;;;;;;0.00;0.00;;;;;;;5.57;100.00;101244.72;5073366;28;20189;-76
2022/09/22 04:52:03;;;;;;;0.00;0.00;;;;;;;5.54;100.00;101253.38;5073048;28;20182;-76
2022/09/22 04:54:29;;;;;;;0.00;0.00;;;;;;;5.60;100.00;101258.59;5072959;28;20179;-75
2022/09/22 04:56:54;;;;;;;0.00;0.00;;;;;;;5.58;100.00;101251.78;5072611;28;20264;-76
2022/09/22 04:59:20;;;;;;;0.00;0.00;;;;;;;5.66;100.00;101254.84;5072864;28;20248;-76
2022/09/22 05:01:45;;;;;;;0.00;0.00;;;;;;;5.61;100.00;101251.25;5072932;28;20170;-76
2022/09/22 05:04:10;;;;;;;0.00;0.00;;;;;;;5.44;100.00;101251.41;5072917;28;20538;-76
2022/09/22 05:06:36;;;;;;;0.00;0.00;;;;;;;5.41;100.00;101251.91;5072652;28;20193;-76
2022/09/22 05:09:02;;;;;;;0.00;0.00;;;;;;;5.45;100.00;101246.78;5072714;28;20626;-75
2022/09/22 05:11:29;;;;;;;0.00;0.00;;;;;;;5.49;100.00;101251.44;5071515;28;20297;-76
2022/09/22 05:13:54;;;;;;;0.00;0.00;;;;;;;5.45;100.00;101244.91;5072623;28;20249;-76
2022/09/22 05:16:20;;;;;;;0.00;0.00;;;;;;;5.44;100.00;101254.09;5072336;28;20274;-76
2022/09/22 05:18:47;;;;;;;0.00;0.00;;;;;;;5.37;100.00;101248.09;5072381;28;20249;-75
2022/09/22 05:21:12;;;;;;;0.00;0.00;;;;;;;5.32;100.00;101256.16;5071300;28;20178;-76
2022/09/22 05:23:38;;;;;;;0.00;0.00;;;;;;;5.31;100.00;101239.09;5072381;28;20183;-76
2022/09/22 05:26:04;;;;;;;0.00;0.00;;;;;;;5.33;100.00;101245.06;5072152;28;20224;-76
2022/09/22 05:28:29;;;;;;;0.00;0.00;;;;;;;5.42;100.00;101250.03;5072325;28;20174;-75
2022/09/22 05:30:55;;;;;;;0.00;0.00;;;;;;;5.47;100.00;101253.59;5072382;28;20166;-76
2022/09/22 05:33:20;;;;;;;0.00;0.00;;;;;;;5.52;100.00;101260.97;5072209;28;20593;-76
2022/09/22 05:35:45;;;;;;;0.00;0.00;;;;;;;5.38;100.00;101258.66;5071822;28;20175;-75
2022/09/22 05:38:10;;;;;;;0.00;0.00;;;;;;;5.37;100.00;101254.34;5072142;28;20752;-76
2022/09/22 05:40:36;;;;;;;0.73;0.73;;;;;;;5.40;100.00;101266.53;5072470;28;20178;-76
2022/09/22 05:43:01;;;;;;;0.00;0.00;;;;;;;5.45;100.00;101258.44;5072032;28;20572;-77
2022/09/22 05:45:27;;;;;;;0.00;0.00;;;;;;;5.53;100.00;101246.34;5071909;28;20258;-77
2022/09/22 05:47:52;;;;;;;0.10;0.10;;;;;;;5.69;100.00;101261.66;5071777;28;20191;-76
2022/09/22 05:50:19;;;;;;;0.00;0.00;;;;;;;5.71;100.00;101259.50;5072249;28;20182;-78
2022/09/22 05:52:45;;;;;;;0.00;0.00;;;;;;;5.70;100.00;101257.84;5071842;28;20178;-76
2022/09/22 05:55:12;;;;;;;0.00;0.00;;;;;;;5.72;100.00;101266.53;5071998;28;20528;-77
2022/09/22 05:57:37;;;;;;;0.00;0.00;;;;;;;5.76;100.00;101267.66;5070125;28;20229;-77
2022/09/22 06:00:05;;;;;;;0.00;0.00;;;;;;;5.72;100.00;101268.44;5071680;28;20672;-77
2022/09/22 06:02:30;;;;;;;0.00;0.00;;;;;;;5.65;100.00;101271.38;5071756;28;20179;-76
2022/09/22 06:04:56;;;;;;;0.00;0.00;;;;;;;5.69;100.00;101275.22;5072248;28;20284;-76
2022/09/22 06:07:25;;;;;;;0.00;0.00;;;;;;;5.85;100.00;101274.25;5071693;28;20529;-77
2022/09/22 06:09:50;;;;;;;0.00;0.00;;;;;;;5.82;100.00;101273.97;5071464;28;20175;-77
2022/09/22 06:12:17;;;;;;;0.00;0.00;;;;;;;5.84;100.00;101274.50;5071787;28;20546;-76
2022/09/22 06:14:42;;;;;;;0.00;0.00;;;;;;;5.85;100.00;101278.84;5071751;28;20186;-77
2022/09/22 06:17:10;;;;;;;0.20;0.20;;;;;;;5.92;100.00;101268.63;5071399;28;20199;-77
2022/09/22 06:19:36;;;;;;;0.00;0.00;;;;;;;6.14;100.00;101269.34;5071491;28;20625;-77
2022/09/22 06:22:02;;;;;;;0.00;0.00;;;;;;;6.26;100.00;101266.44;5071073;28;20186;-73
2022/09/22 06:24:27;;;;;;;0.00;0.00;;;;;;;6.38;100.00;101264.34;5071258;28;20655;-73
2022/09/22 06:26:52;;;;;;;0.00;0.00;;;;;;;6.49;100.00;101271.44;5067615;28;20174;-73
2022/09/22 06:29:18;;;;;;;0.00;0.00;;;;;;;6.55;100.00;101267.66;5070908;28;20192;-73
2022/09/22 06:31:44;;;;;;;0.00;0.00;;;;;;;6.62;100.00;101270.13;5071163;28;20174;-73
2022/09/22 06:34:10;;;;;;;0.00;0.00;;;;;;;6.70;100.00;101274.25;5070899;28;20324;-73
2022/09/22 06:36:36;;;;;;;0.20;0.20;;;;;;;6.73;100.00;101276.44;5070945;28;20174;-74
2022/09/22 06:39:03;;;;;;;0.00;0.00;;;;;;;6.75;100.00;101272.38;5071109;28;20170;-73
2022/09/22 06:41:31;;;;;;;0.00;0.00;;;;;;;6.78;100.00;101271.00;5071153;28;20266;-72
2022/09/22 06:43:56;;;;;;;0.30;0.30;;;;;;;6.78;100.00;101269.13;5071030;28;20228;-72
2022/09/22 06:46:25;;;;;;;0.30;0.30;;;;;;;6.79;100.00;101269.94;5070770;28;20634;-74
2022/09/22 06:48:56;;;;;;;0.00;0.00;;;;;;;6.83;100.00;101271.06;5069501;28;20257;-73
2022/09/22 06:51:26;;;;;;;0.00;0.00;;;;;;;6.88;100.00;101273.78;5071012;28;20173;-72
2022/09/22 06:53:53;;;;;;;0.00;0.00;;;;;;;6.94;100.00;101269.16;5070946;28;20529;-73
2022/09/22 06:56:20;;;;;;;0.00;0.00;;;;;;;7.02;100.00;101272.19;5070622;28;20201;-73
2022/09/22 06:58:45;;;;;;;0.00;0.00;;;;;;;7.10;100.00;101266.25;5070664;28;20566;-74
2022/09/22 07:01:11;;;;;;;0.00;0.00;;;;;;;7.17;100.00;101268.69;5070730;28;20170;-73
2022/09/22 07:03:40;;;;;;;0.00;0.00;;;;;;;7.25;100.00;101275.53;5070632;28;20223;-76
2022/09/22 07:06:06;;;;;;;1.07;1.07;;;;;;;7.41;100.00;101271.75;5070557;28;20625;-77
2022/09/22 07:08:33;;;;;;;0.00;0.00;;;;;;;7.47;100.00;101265.22;5070774;28;20185;-76
2022/09/22 07:11:06;;;;;;;0.00;0.00;;;;;;;7.50;100.00;101269.28;5070828;28;20181;-76
2022/09/22 07:13:38;;;;;;;0.00;0.00;;;;;;;7.58;100.00;101266.06;5070914;28;20166;-76
2022/09/22 07:16:07;;;;;;;0.00;0.00;;;;;;;7.71;100.00;101273.66;5070795;28;20166;-76
2022/09/22 07:18:34;;;;;;;0.00;0.00;;;;;;;7.88;100.00;101276.94;5070574;28;20233;-77
2022/09/22 07:21:08;;;;;;;0.00;0.00;;;;;;;7.94;100.00;101275.00;5069368;28;20675;-76
2022/09/22 07:23:35;;;;;;;0.00;0.00;;;;;;;8.00;100.00;101273.94;5069071;28;20197;-76
2022/09/22 07:26:03;;;;;;;0.00;0.00;;;;;;;8.15;100.00;101282.06;5069887;28;20174;-76
2022/09/22 07:28:30;;;;;;;0.00;0.00;;;;;;;8.37;100.00;101284.50;5070001;28;20175;-76
2022/09/22 07:31:00;;;;;;;0.00;0.00;;;;;;;8.45;100.00;101285.88;5070198;28;20185;-76
2022/09/22 07:33:25;;;;;;;0.00;0.00;;;;;;;8.58;100.00;101294.28;5070086;28;20175;-76
2022/09/22 07:36:10;;;;;;;0.00;0.00;;;;;;;8.74;100.00;101286.03;5069567;28;20187;-76
2022/09/22 07:38:40;;;;;;;0.00;0.00;;;;;;;8.86;100.00;101284.63;5069898;28;20255;-76
2022/09/22 07:41:08;;;;;;;0.00;0.00;;;;;;;8.99;100.00;101287.84;5069932;28;20184;-75
2022/09/22 07:43:34;;;;;;;0.00;0.00;;;;;;;9.04;100.00;101285.09;5070033;28;20179;-76
2022/09/22 07:45:59;;;;;;;0.00;0.00;;;;;;;9.07;100.00;101279.06;5069815;28;20300;-75
2022/09/22 07:48:40;;;;;;;0.00;0.00;;;;;;;9.09;100.00;101290.50;5069885;28;20182;-76
2022/09/22 07:51:08;;;;;;;0.00;0.00;;;;;;;9.29;100.00;101284.16;5070004;28;20522;-75
2022/09/22 07:53:35;;;;;;;0.20;0.20;;;;;;;9.62;100.00;101288.00;5070000;28;20171;-76
2022/09/22 07:56:02;;;;;;;0.00;0.00;;;;;;;9.72;100.00;101288.75;5069477;28;20187;-75
2022/09/22 07:58:28;;;;;;;0.00;0.00;;;;;;;9.83;100.00;101286.75;5069659;28;20287;-75
2022/09/22 08:00:54;;;;;;;0.00;0.00;;;;;;;9.94;100.00;101285.56;5070333;28;20228;-76
2022/09/22 08:03:19;;;;;;;0.00;0.00;;;;;;;10.06;100.00;101277.00;5069905;28;20261;-76
2022/09/22 08:05:45;;;;;;;0.00;0.00;;;;;;;10.17;100.00;101291.38;5068795;28;20539;-73
2022/09/22 08:08:11;;;;;;;0.00;0.00;;;;;;;10.26;100.00;101286.94;5070131;28;20504;-74
2022/09/22 08:10:37;;;;;;;0.20;0.20;;;;;;;10.74;100.00;101293.25;5070198;28;20182;-75
2022/09/22 08:13:03;;;;;;;0.00;0.00;;;;;;;10.81;100.00;101293.69;5070233;28;20178;-73
2022/09/22 08:15:28;;;;;;;0.00;0.00;;;;;;;10.92;100.00;101288.94;5070153;28;20211;-73
2022/09/22 08:17:57;;;;;;;0.13;0.13;;;;;;;11.18;100.00;101289.41;5073143;28;20238;-74
2022/09/22 08:20:25;;;;;;;0.00;0.00;;;;;;;11.35;97.82;101288.91;5072221;28;20232;-73
2022/09/22 08:22:52;;;;;;;0.00;0.00;;;;;;;11.59;96.92;101287.72;5070981;28;20222;-73
2022/09/22 08:25:17;;;;;;;0.00;0.00;;;;;;;11.65;94.29;101287.63;5071821;28;20177;-74
2022/09/22 08:27:43;;;;;;;0.00;0.00;;;;;;;11.85;91.13;101293.59;5073460;28;20171;-74
2022/09/22 08:30:10;;;;;;;0.00;0.00;;;;;;;11.98;89.08;101283.81;5073567;28;20281;-75
2022/09/22 08:32:36;;;;;;;0.00;0.00;;;;;;;12.19;87.98;101285.09;5073616;28;20262;-75
2022/09/22 08:35:02;;;;;;;0.00;0.00;;;;;;;12.18;86.05;101288.94;5074622;28;20250;-74
2022/09/22 08:37:28;;;;;;;0.00;0.00;;;;;;;12.36;85.87;101290.00;5077073;28;20194;-74
2022/09/22 08:39:53;;;;;;;0.10;0.10;;;;;;;12.45;84.54;101290.94;5081780;28;20224;-74
2022/09/22 08:42:22;;;;;;;0.00;0.00;;;;;;;12.54;84.03;101284.72;5077674;28;20170;-74
2022/09/22 08:45:06;;;;;;;0.00;0.00;;;;;;;12.60;85.27;101286.28;5072858;28;20572;-73
2022/09/22 08:53:34;;;;;;;0.00;0.00;;;;;;;13.06;80.69;101286.94;5073445;28;20193;-74
2022/09/22 08:56:12;;;;;;;0.10;0.10;;;;;;;13.19;80.20;101290.81;5073254;28;20185;-73
2022/09/22 08:59:15;;;;;;;0.00;0.00;;;;;;;13.14;78.83;101287.31;5073434;28;20198;-74
2022/09/22 09:02:06;;;;;;;0.57;0.50;;;;;;;13.17;77.62;101281.25;5070283;28;20281;-74
2022/09/22 09:04:35;;;;;;;0.00;0.00;;;;;;;13.23;77.79;101285.53;5072973;28;20167;-75
2022/09/22 09:07:13;;;;;;;0.00;0.00;;;;;;;13.32;77.30;101289.16;5072508;28;20200;-74
2022/09/22 09:10:14;;;;;;;0.00;0.00;;;;;;;13.25;76.60;101284.09;5069247;28;20656;-74
2022/09/22 09:12:49;;;;;;;0.00;0.00;;;;;;;13.34;76.70;101289.66;5034671;28;20524;-76
2022/09/22 09:15:23;;;;;;;0.00;0.00;;;;;;;13.53;77.85;101287.56;5052613;28;20163;-76
2022/09/22 09:17:53;;;;;;;0.00;0.00;;;;;;;13.60;76.35;101285.22;5060981;28;20288;-76
2022/09/22 09:20:53;;;;;;;0.00;0.00;;;;;;;13.81;75.19;101291.00;5072426;28;20228;-76
2022/09/22 09:23:32;;;;;;;0.00;0.00;;;;;;;13.77;74.50;101290.03;5072298;28;20257;-77
2022/09/22 09:26:01;;;;;;;0.00;0.00;;;;;;;13.79;74.73;101286.97;5071057;28;20863;-76
2022/09/22 09:28:35;;;;;;;0.00;0.00;;;;;;;13.82;73.56;101286.31;5072131;28;20196;-76
2022/09/22 09:31:26;;;;;;;0.00;0.00;;;;;;;13.95;74.12;101286.25;5072226;28;20178;-76
2022/09/22 09:34:01;;;;;;;0.00;0.00;;;;;;;14.12;73.17;101290.25;5051420;28;20687;-76
2022/09/22 09:36:34;;;;;;;0.00;0.00;;;;;;;14.18;72.65;101289.00;5072014;28;20178;-75
2022/09/22 09:39:13;;;;;;;0.00;0.00;;;;;;;14.23;72.33;101272.38;5072249;28;20255;-76
2022/09/22 09:41:40;;;;;;;0.30;0.30;;;;;;;14.29;71.74;101280.16;5072188;28;20178;-76
2022/09/22 09:44:06;;;;;;;0.00;0.00;;;;;;;14.46;70.90;101284.13;5072200;28;20262;-76
2022/09/22 09:47:01;;;;;;;0.00;0.00;;;;;;;14.61;71.45;101281.00;5071817;28;20249;-76
2022/09/22 09:49:27;;;;;;;0.00;0.00;;;;;;;14.63;69.80;101277.91;5070752;28;20282;-75
2022/09/22 09:51:59;;;;;;;0.00;0.00;;;;;;;14.49;69.51;101272.53;5072085;28;20265;-75
2022/09/22 09:54:26;;;;;;;0.00;0.00;;;;;;;14.35;70.12;101274.53;5071937;28;20174;-75
2022/09/22 09:57:08;;;;;;;0.03;0.03;;;;;;;14.42;70.71;101266.63;5071529;28;20278;-76
2022/09/22 10:02:24;;;;;;;0.00;0.00;;;;;;;14.24;72.34;101265.72;5072106;28;20209;-75
2022/09/22 10:04:52;;;;;;;0.00;0.00;;;;;;;14.25;73.31;101270.91;5071732;28;20274;-75
2022/09/22 10:07:20;;;;;;;0.00;0.00;;;;;;;14.30;74.24;101273.50;5071503;28;20703;-75
2022/09/22 10:09:48;;;;;;;0.03;0.03;;;;;;;14.34;75.20;101270.16;5071518;28;20171;-76
2022/09/22 10:12:26;;;;;;;0.00;0.00;;;;;;;14.32;74.80;101267.72;5071548;28;20265;-76
2022/09/22 10:14:57;;;;;;;0.10;0.10;;;;;;;14.31;74.36;101266.06;5071439;28;20253;-76
2022/09/22 10:17:28;;;;;;;0.00;0.00;;;;;;;14.35;73.63;101266.28;5070478;28;20205;-75
2022/09/22 10:20:15;;;;;;;0.00;0.00;;;;;;;14.40;72.31;101253.19;5066389;28;20190;-76
2022/09/22 10:22:41;;;;;;;0.00;0.00;;;;;;;14.46;71.42;101251.13;5071425;28;20190;-76
2022/09/22 10:25:27;;;;;;;0.00;0.00;;;;;;;14.51;70.48;101256.50;5071018;28;20748;-76
2022/09/22 10:28:21;;;;;;;0.00;0.00;;;;;;;14.59;69.90;101250.22;5070981;28;20182;-76
2022/09/22 10:31:03;;;;;;;0.00;0.00;;;;;;;14.69;70.10;101257.38;5071661;28;20173;-75
2022/09/22 10:33:29;;;;;;;0.00;0.00;;;;;;;14.76;70.94;101255.78;5071163;28;20178;-74
2022/09/22 10:36:02;;;;;;;0.10;0.10;;;;;;;14.81;70.36;101254.81;5071233;28;20174;-73
2022/09/22 10:38:28;;;;;;;0.00;0.00;;;;;;;14.79;70.09;101252.41;5070655;28;20248;-74
2022/09/22 10:41:06;;;;;;;0.00;0.00;;;;;;;14.85;69.49;101248.34;5070928;28;20205;-74
2022/09/22 10:43:59;;;;;;;0.00;0.00;;;;;;;14.86;69.01;101240.91;5071034;28;20162;-74
2022/09/22 10:46:48;;;;;;;0.00;0.00;;;;;;;14.91;69.98;101246.28;5071158;28;20171;-74
2022/09/22 10:49:41;;;;;;;0.00;0.00;;;;;;;14.96;69.57;101245.31;5070962;28;20257;-74
2022/09/22 10:52:18;;;;;;;0.00;0.00;;;;;;;14.96;67.86;101242.56;5066548;28;20190;-73
2022/09/22 10:55:07;;;;;;;0.63;0.63;;;;;;;14.93;67.34;101233.00;5069387;28;20537;-73
2022/09/22 10:57:57;;;;;;;0.00;0.00;;;;;;;14.96;67.71;101237.84;5070872;28;20194;-74
2022/09/22 11:00:26;;;;;;;0.10;0.10;;;;;;;15.04;67.87;101239.00;5070885;28;20645;-74
2022/09/22 11:02:51;;;;;;;0.00;0.00;;;;;;;15.07;68.36;101227.34;5070883;28;20244;-73
2022/09/22 11:14:30;;;;;;;0.00;0.00;;;;;;;15.25;67.14;101234.50;5070450;28;20648;-74
2022/09/22 11:17:18;;;;;;;0.00;0.00;;;;;;;15.24;67.33;101223.81;5067798;28;20261;-74
2022/09/22 11:20:31;;;;;;;0.33;0.20;;;;;;;15.34;66.88;101227.06;5070749;28;20649;-73
2022/09/22 11:23:24;;;;;;;1.80;0.27;;;;;;;15.45;65.27;101214.53;5063126;28;20189;-73
2022/09/22 11:26:11;;;;;;;0.00;0.00;;;;;;;15.36;64.81;101213.75;5069916;28;20182;-73
2022/09/22 11:28:46;;;;;;;0.00;0.00;;;;;;;15.32;64.30;101207.25;5066879;28;20182;-73
2022/09/22 11:31:45;;;;;;;0.00;0.00;;;;;;;15.24;64.66;101208.09;5066937;28;20819;-73
2022/09/22 11:34:48;;;;;;;0.00;0.00;;;;;;;15.39;63.51;101202.09;5070264;28;20748;-75
2022/09/22 11:37:49;;;;;;;0.00;0.00;;;;;;;15.60;64.49;101202.25;5069645;28;20289;-73
2022/09/22 11:41:05;;;;;;;0.30;0.30;;;;;;;15.72;62.65;101196.06;5066937;28;20243;-73
2022/09/22 11:44:07;;;;;;;0.00;0.00;;;;;;;15.77;63.42;101193.97;5002402;28;20201;-74
2022/09/22 11:47:28;;;;;;;0.00;0.00;;;;;;;15.72;62.83;101183.09;5068927;28;20186;-74
2022/09/22 11:50:21;;;;;;;0.00;0.00;;;;;;;15.68;63.54;101187.66;5016660;28;20249;-74
2022/09/22 11:52:56;;;;;;;0.00;0.00;;;;;;;15.60;63.02;101174.69;5069559;28;20174;-73
2022/09/22 11:55:33;;;;;;;0.00;0.00;;;;;;;15.64;62.55;101177.63;5073658;28;20616;-75
2022/09/22 11:58:07;;;;;;;0.00;0.00;;;;;;;15.54;61.97;101176.00;5072081;28;20206;-74
2022/09/22 12:00:38;;;;;;;0.00;0.00;;;;;;;15.71;62.78;101170.47;5073817;28;20175;-75
2022/09/22 12:03:15;;;;;;;0.00;0.00;;;;;;;15.76;61.30;101169.47;5072936;28;20194;-73
2022/09/22 12:06:02;;;;;;;0.00;0.00;;;;;;;15.91;60.69;101174.47;5065423;28;20187;-73